createdAt,value
2022-10-04T00:02:46.487Z,10.13
2022-10-04T00:05:20.137Z,10.11
2022-10-04T00:12:38.416Z,10.14
2022-10-04T00:16:00.831Z,10.15
2022-10-04T00:23:38.710Z,10.16
2022-10-04T00:26:22.551Z,10.13
2022-10-04T00:28:50.925Z,10.15
2022-10-04T00:31:28.097Z,10.11
2022-10-04T00:34:18.743Z,10.09
2022-10-04T00:36:55.408Z,10.06
2022-10-04T00:39:33.517Z,10.03
2022-10-04T00:42:46.356Z,10.02
2022-10-04T00:45:40.565Z,10.01
2022-10-04T00:49:29.689Z,10.02
2022-10-04T00:52:32.174Z,10.01
2022-10-04T00:59:42.007Z,10.04
2022-10-04T01:02:18.319Z,10.02
2022-10-04T01:05:27.622Z,10.03
2022-10-04T01:08:18.878Z,10.03
2022-10-04T01:12:25.421Z,10.07
2022-10-04T01:31:23.704Z,10.03
2022-10-04T01:38:53.107Z,10.03
2022-10-04T01:42:28.237Z,10.02
2022-10-04T01:51:32.591Z,9.97
2022-10-04T05:34:01.049Z,9.74
2022-10-04T05:36:58.484Z,9.81
2022-10-04T05:39:52.355Z,9.98
2022-10-04T05:42:49.009Z,9.97
2022-10-04T05:45:33.824Z,10.50
2022-10-04T05:48:14.259Z,10.55
2022-10-04T05:50:44.047Z,10.34
2022-10-04T06:18:55.743Z,10.82
2022-10-04T06:27:54.393Z,11.46
2022-10-04T06:31:15.594Z,11.08
2022-10-04T06:38:51.910Z,11.08
2022-10-04T06:41:41.712Z,11.17
2022-10-04T06:54:51.540Z,11.27
2022-10-04T06:58:08.980Z,11.05
2022-10-04T07:01:13.146Z,11.28
2022-10-04T07:04:13.992Z,11.21
2022-10-04T07:07:42.066Z,11.20
2022-10-04T07:10:41.134Z,11.32
2022-10-04T07:13:20.664Z,11.44
2022-10-04T07:16:05.060Z,11.41
2022-10-04T07:19:19.246Z,11.35
2022-10-04T07:22:39.866Z,11.28
2022-10-04T07:35:54.948Z,11.42
2022-10-04T07:38:32.419Z,11.35
2022-10-04T07:41:57.868Z,11.37
2022-10-04T07:54:31.531Z,11.48
2022-10-04T08:02:21.651Z,11.55
2022-10-04T08:09:40.873Z,11.79
2022-10-04T08:13:06.160Z,11.80
2022-10-04T08:15:53.262Z,11.82
2022-10-04T08:38:02.548Z,12.39
2022-10-04T08:41:32.546Z,12.32
2022-10-04T08:44:46.798Z,12.38
2022-10-04T08:47:56.011Z,12.47
2022-10-04T08:51:09.319Z,12.55
2022-10-04T08:54:28.305Z,12.59
2022-10-04T08:57:16.083Z,12.56
2022-10-04T09:00:13.794Z,12.56
2022-10-04T09:03:21.709Z,12.54
2022-10-04T09:06:38.508Z,12.56
2022-10-04T09:09:51.427Z,12.62
2022-10-04T09:13:25.389Z,12.76
2022-10-04T09:16:17.329Z,12.85
2022-10-04T09:19:22.617Z,12.91
2022-10-04T09:22:32.728Z,12.97
2022-10-04T09:25:48.809Z,13.04
2022-10-04T09:29:04.747Z,13.03
2022-10-04T09:31:58.993Z,13.05
2022-10-04T09:35:24.637Z,13.11
2022-10-04T09:38:46.744Z,13.10
2022-10-04T09:41:38.810Z,13.17
2022-10-04T09:44:29.361Z,13.24
2022-10-04T09:47:38.077Z,13.30
2022-10-04T09:50:38.485Z,13.39
2022-10-04T09:54:15.670Z,13.50
2022-10-04T09:57:13.069Z,13.63
2022-10-04T10:00:11.911Z,13.77
2022-10-04T10:03:23.814Z,13.94
2022-10-04T10:06:07.257Z,14.12
2022-10-04T10:09:20.547Z,14.22
2022-10-04T10:12:46.732Z,14.18
2022-10-04T10:16:05.961Z,14.13
2022-10-04T10:19:00.265Z,14.16
2022-10-04T10:22:23.003Z,14.04
2022-10-04T10:25:25.474Z,13.92
2022-10-04T10:28:19.041Z,13.76
2022-10-04T10:31:05.995Z,13.72
2022-10-04T10:33:46.942Z,13.72
2022-10-04T10:36:42.544Z,13.92
2022-10-04T10:39:53.161Z,14.14
2022-10-04T10:42:36.322Z,14.42
2022-10-04T10:45:29.262Z,14.51
2022-10-04T10:48:04.924Z,14.62
2022-10-04T10:51:10.359Z,14.71
2022-10-04T10:54:20.642Z,14.75
2022-10-04T10:57:00.758Z,14.80
2022-10-04T11:00:06.665Z,14.78
2022-10-04T11:03:03.249Z,14.80
2022-10-04T11:06:16.523Z,14.87
2022-10-04T11:09:40.827Z,14.87
2022-10-04T11:12:50.727Z,15.15
2022-10-04T11:16:04.029Z,15.35
2022-10-04T11:19:19.265Z,15.48
2022-10-04T11:22:12.273Z,15.72
2022-10-04T11:25:07.814Z,15.72
2022-10-04T11:28:18.856Z,16.37
2022-10-04T11:31:23.801Z,16.60
2022-10-04T11:34:32.622Z,16.40
2022-10-04T11:37:37.675Z,16.64
2022-10-04T11:40:32.803Z,16.59
2022-10-04T11:48:18.778Z,16.79
2022-10-04T12:01:54.274Z,16.31
2022-10-04T12:14:56.962Z,15.60
2022-10-04T12:23:42.396Z,15.74
2022-10-04T12:32:19.150Z,15.69
2022-10-04T12:34:53.390Z,15.73
2022-10-04T12:38:19.844Z,15.72
2022-10-04T12:44:28.668Z,15.63
2022-10-04T12:52:24.659Z,15.72
2022-10-04T12:55:33.510Z,15.94
2022-10-04T12:59:00.541Z,16.28
2022-10-04T13:01:45.921Z,16.55
2022-10-04T13:04:42.284Z,17.10
2022-10-04T13:21:02.323Z,17.84
2022-10-04T13:30:08.009Z,18.04
2022-10-04T13:51:19.896Z,17.69
2022-10-04T13:54:43.090Z,17.55
2022-10-04T13:57:37.354Z,17.43
2022-10-04T14:00:12.871Z,17.38
2022-10-04T14:03:20.058Z,17.24
2022-10-04T14:06:34.244Z,17.07
2022-10-04T14:10:00.437Z,16.92
2022-10-04T14:13:08.102Z,16.62
2022-10-04T14:16:18.085Z,16.38
2022-10-04T14:19:23.936Z,16.17
2022-10-04T14:33:12.753Z,15.64
2022-10-04T15:17:25.782Z,14.77
2022-10-04T15:20:20.193Z,14.70
2022-10-04T15:23:26.616Z,14.64
2022-10-04T15:26:10.531Z,14.60
2022-10-04T15:39:36.926Z,14.45
2022-10-04T15:42:34.158Z,14.42
2022-10-04T16:57:28.497Z,13.27
2022-10-04T17:00:38.203Z,13.14
2022-10-04T17:03:32.769Z,12.93
2022-10-04T17:06:15.444Z,12.84
2022-10-04T17:09:16.562Z,12.77
2022-10-04T17:12:19.534Z,12.69
2022-10-04T17:15:09.490Z,12.62
2022-10-04T17:18:07.131Z,12.57
2022-10-04T17:20:42.267Z,12.54
2022-10-04T17:23:45.078Z,12.46
2022-10-04T17:26:50.718Z,12.40
2022-10-04T17:29:58.991Z,12.33
2022-10-04T17:32:55.487Z,12.25
2022-10-04T17:35:59.662Z,12.21
2022-10-04T17:39:19.678Z,12.13
2022-10-04T17:41:56.681Z,12.10
2022-10-04T17:44:33.697Z,12.04
2022-10-04T17:47:57.801Z,11.98
2022-10-04T17:55:02.900Z,11.87
2022-10-04T17:57:50.443Z,11.80
2022-10-04T18:01:02.831Z,11.76
2022-10-04T18:04:48.054Z,11.69
2022-10-04T18:08:17.778Z,11.63
2022-10-04T18:11:39.553Z,11.56
2022-10-04T18:16:17.591Z,11.49
2022-10-04T18:19:52.277Z,11.40
